Surface observations / UK / EGBB

Quebec | Canada | USA | France | UK | Europe | Elsewhere

Display: Info & Location for EGBB | Help decoding METAR

EGBB BIRMINGHAM AIRPORT -- UK
Raw surface observations for station EGBB
EGBB 211750Z 25010KT 200V280 9999 FEW035 BKN049 15/07 Q1010=
EGBB 211720Z 22008KT 190V260 9999 -SHRA SCT045 16/08 Q1010=
EGBB 211650Z 24009KT 200V280 9999 FEW035 SCT045 16/07 Q1011=
EGBB 211620Z 26011KT 9999 FEW040 BKN048 16/07 Q1011=
EGBB 211550Z 24009KT 190V280 9999 SCT032 SCT041 16/08 Q1011=
EGBB 211520Z 21008KT 9999 FEW035 15/09 Q1011=
EGBB 211450Z 21010KT 9999 SCT030 BKN045 15/09 Q1012=
EGBB 211420Z 22009KT 180V270 9999 SCT035 BKN045 16/08 Q1012=
EGBB 211350Z 20008KT 170V240 9999 FEW036 BKN045 17/09 Q1012=
EGBB 211320Z 20010KT 9999 SCT031 BKN037 BKN044 16/09 Q1012=
EGBB 211250Z 22009KT 180V250 9999 SCT039 16/08 Q1013=
EGBB 211220Z 23009KT 190V260 9999 SCT036 16/08 Q1013=
EGBB 211150Z 25005KT 200V300 9999 SCT039 BKN046 15/07 Q1013=
EGBB 211120Z 27008KT 9999 SCT036 BKN045 15/07 Q1013=
EGBB 211050Z 23007KT 180V270 9999 -SHRA SCT036 SCT041 15/08 Q1013=
EGBB 211020Z 23008KT 190V270 9999 SCT024 SCT030 16/08 Q1014=
EGBB 210950Z 20009KT 160V240 9999 FEW023 15/09 Q1014=
EGBB 210920Z 22009KT 180V250 9999 FEW027 15/09 Q1014=
EGBB 210850Z 22009KT 9999 FEW020 14/08 Q1014=
EGBB 210820Z 22008KT CAVOK 13/08 Q1014=
EGBB 210750Z 22008KT CAVOK 11/08 Q1014=
EGBB 210720Z 21006KT 180V240 CAVOK 10/07 Q1014=
EGBB 210650Z 20005KT 170V230 CAVOK 10/07 Q1015=
EGBB 210620Z 18004KT 9999 FEW008 09/07 Q1015=
EGBB 210550Z 20005KT 9999 FEW005 08/07 Q1015=
EGBB 210520Z 17004KT CAVOK 07/06 Q1015=
EGBB 210450Z 21005KT 180V250 CAVOK 08/07 Q1015=
EGBB 210420Z 19005KT 160V230 CAVOK 08/06 Q1015=
EGBB 210350Z VRB03KT CAVOK 08/06 Q1016=
EGBB 210320Z 20005KT CAVOK 08/07 Q1016=
EGBB 210250Z 21005KT CAVOK 09/07 Q1016=
EGBB 210220Z 19005KT CAVOK 07/06 Q1016=
EGBB 210150Z AUTO 25005KT 9999 NCD 10/07 Q1016=
EGBB 210120Z AUTO 23004KT 9999 NCD 10/07 Q1017=
EGBB 210050Z AUTO 27003KT 9999 NCD 10/07 Q1017=
EGBB 210020Z 25004KT CAVOK 10/07 Q1017=
EGBB 202350Z 25005KT CAVOK 10/08 Q1017=
EGBB 202320Z 23004KT CAVOK 10/08 Q1017=
EGBB 202250Z 24003KT CAVOK 10/07 Q1017=
EGBB 202220Z 25002KT CAVOK 11/08 Q1018=
EGBB 202150Z VRB03KT CAVOK 12/08 Q1018=
EGBB 202120Z 27004KT CAVOK 12/08 Q1018=
EGBB 202050Z 27005KT CAVOK 12/08 Q1017=
EGBB 202020Z 29006KT CAVOK 13/08 Q1017=
EGBB 201950Z 26005KT CAVOK 13/08 Q1017=
EGBB 201920Z 26006KT CAVOK 13/08 Q1017=
EGBB 201850Z 27008KT 240V300 9999 VCSH FEW032 14/07 Q1017=
EGBB 201820Z 30010KT 9999 SCT039 BKN048 15/06 Q1017=